Time;durP1;ratioP1;P1;durP2;ratioP2;P2;SDS_P1;SDS_P2;PMS_P1;PMS_P2;Temp;Humidity;BMP_temperature;BMP_pressure;BME280_temperature;BME280_humidity;BME280_pressure;Samples;Min_cycle;Max_cycle;Signal;HPM_P1;HPM_P2
2021/01/30 00:00:30;;;;;;;8.47;5.13;;;6.40;68.10;;;;;;5063737;28;20024;-71
2021/01/30 00:02:57;;;;;;;9.87;5.00;;;6.40;68.30;;;;;;5066764;28;20355;-68
2021/01/30 00:05:23;;;;;;;8.90;4.90;;;6.50;68.40;;;;;;5066019;28;20127;-69
2021/01/30 00:07:49;;;;;;;7.87;4.10;;;6.60;68.30;;;;;;5071037;28;20530;-70
2021/01/30 00:10:16;;;;;;;10.03;4.87;;;6.70;68.00;;;;;;5062832;28;20128;-69
2021/01/30 00:12:41;;;;;;;8.67;5.60;;;6.70;67.70;;;;;;5050224;28;20029;-68
2021/01/30 00:15:09;;;;;;;10.27;5.93;;;6.70;67.60;;;;;;5018023;28;20059;-70
2021/01/30 00:17:35;;;;;;;10.03;6.53;;;6.60;67.50;;;;;;5027567;28;20045;-70
2021/01/30 00:20:00;;;;;;;11.63;6.70;;;6.50;67.80;;;;;;5046348;28;20375;-69
2021/01/30 00:22:26;;;;;;;11.67;6.50;;;6.40;68.50;;;;;;5037616;28;20030;-70
2021/01/30 00:24:52;;;;;;;14.73;9.23;;;6.30;68.60;;;;;;5050882;28;20044;-69
2021/01/30 00:27:20;;;;;;;13.67;8.20;;;6.30;69.10;;;;;;5052323;28;20033;-69
2021/01/30 00:29:47;;;;;;;11.63;7.37;;;6.20;69.50;;;;;;5048589;28;20032;-69
2021/01/30 00:32:15;;;;;;;12.33;8.00;;;6.10;70.00;;;;;;5023435;28;20060;-69
2021/01/30 00:34:42;;;;;;;14.63;8.00;;;6.10;70.00;;;;;;5036446;28;20055;-69
2021/01/30 00:37:12;;;;;;;11.93;8.23;;;6.10;70.30;;;;;;5035733;28;20067;-72
2021/01/30 00:39:38;;;;;;;12.50;7.77;;;6.10;70.50;;;;;;5039054;28;20074;-69
2021/01/30 00:42:06;;;;;;;13.60;7.80;;;6.10;70.30;;;;;;5030126;28;20033;-69
2021/01/30 00:44:32;;;;;;;14.63;8.80;;;6.10;70.10;;;;;;5037114;28;20073;-68
2021/01/30 00:46:58;;;;;;;15.63;9.87;;;6.20;70.30;;;;;;5009503;28;20521;-69
2021/01/30 00:49:25;;;;;;;13.47;8.27;;;6.20;69.90;;;;;;5012757;28;20133;-71
2021/01/30 00:51:51;;;;;;;14.60;9.27;;;6.20;69.90;;;;;;5019125;28;20037;-68
2021/01/30 00:54:17;;;;;;;14.27;9.00;;;6.10;70.20;;;;;;5048771;28;20489;-69
2021/01/30 00:56:42;;;;;;;13.13;8.30;;;6.10;70.40;;;;;;5031573;28;20169;-69
2021/01/30 00:59:09;;;;;;;14.07;8.33;;;6.20;70.10;;;;;;5041087;28;20032;-69
2021/01/30 01:01:36;;;;;;;14.10;8.47;;;6.40;69.70;;;;;;5044999;28;20036;-68
2021/01/30 01:04:02;;;;;;;14.57;9.37;;;7.00;69.70;;;;;;5040892;28;20029;-69
2021/01/30 01:06:28;;;;;;;17.60;10.90;;;6.30;69.40;;;;;;5033277;28;20440;-69
2021/01/30 01:08:53;;;;;;;17.00;11.60;;;6.30;69.70;;;;;;5044649;28;20061;-68
2021/01/30 01:11:19;;;;;;;17.47;11.27;;;6.30;69.60;;;;;;5038832;28;20055;-71
2021/01/30 01:13:45;;;;;;;16.83;11.47;;;6.40;69.70;;;;;;5031254;28;20424;-69
2021/01/30 01:16:10;;;;;;;17.80;10.87;;;6.40;69.40;;;;;;5041573;28;20036;-69
2021/01/30 01:18:36;;;;;;;20.43;12.93;;;6.30;69.30;;;;;;5028861;28;20465;-70
2021/01/30 01:21:01;;;;;;;17.80;11.43;;;6.30;69.40;;;;;;5040552;28;20402;-69
2021/01/30 01:23:27;;;;;;;17.23;11.33;;;6.30;69.40;;;;;;5044248;28;20399;-68
2021/01/30 01:25:53;;;;;;;18.30;11.37;;;6.40;69.40;;;;;;5029986;28;20028;-70
2021/01/30 01:28:18;;;;;;;18.23;10.30;;;6.40;69.10;;;;;;5046974;28;20110;-71
2021/01/30 01:30:44;;;;;;;18.47;11.03;;;6.40;69.10;;;;;;5030145;28;20031;-68
2021/01/30 01:33:09;;;;;;;17.73;11.27;;;6.40;69.00;;;;;;5028407;28;20037;-70
2021/01/30 01:35:35;;;;;;;19.10;11.97;;;6.50;68.60;;;;;;5045251;28;20041;-68
2021/01/30 01:38:01;;;;;;;20.13;12.23;;;6.50;68.10;;;;;;5038634;28;20549;-69
2021/01/30 01:40:33;;;;;;;17.37;11.10;;;6.40;68.20;;;;;;5013189;28;20051;-69
2021/01/30 01:43:01;;;;;;;17.43;10.77;;;6.40;68.20;;;;;;5030187;28;20083;-69
2021/01/30 01:45:27;;;;;;;17.43;11.50;;;6.40;68.20;;;;;;5037217;28;20032;-69
2021/01/30 01:47:54;;;;;;;16.07;10.67;;;6.50;67.90;;;;;;5023599;28;20026;-68
2021/01/30 01:50:25;;;;;;;15.47;10.13;;;6.50;67.90;;;;;;5038766;28;20497;-69
2021/01/30 01:52:54;;;;;;;14.87;9.77;;;6.60;67.70;;;;;;5041311;28;20339;-71
2021/01/30 01:55:21;;;;;;;13.60;8.87;;;6.50;67.30;;;;;;5041109;28;20136;-69
2021/01/30 01:57:51;;;;;;;14.47;9.83;;;6.50;67.10;;;;;;5030656;28;20056;-68
2021/01/30 02:00:20;;;;;;;13.67;9.00;;;6.50;67.00;;;;;;5037749;28;20032;-72
2021/01/30 02:02:48;;;;;;;11.40;7.03;;;6.50;66.60;;;;;;5032273;28;20534;-68
2021/01/30 02:05:30;;;;;;;12.40;8.57;;;6.40;66.50;;;;;;5032094;28;20247;-68
2021/01/30 02:07:59;;;;;;;10.57;7.03;;;6.40;66.20;;;;;;5029262;28;20084;-68
2021/01/30 02:10:27;;;;;;;13.53;8.77;;;6.40;66.40;;;;;;5040160;28;20045;-69
2021/01/30 02:13:01;;;;;;;14.03;8.83;;;6.40;66.10;;;;;;5044437;28;20068;-70
2021/01/30 02:15:27;;;;;;;12.00;7.53;;;6.40;66.00;;;;;;5044161;28;20360;-68
2021/01/30 02:18:30;;;;;;;12.00;7.37;;;6.40;65.80;;;;;;5036624;28;20049;-68
2021/01/30 02:21:21;;;;;;;11.83;7.07;;;6.40;65.80;;;;;;5035990;28;20329;-68
2021/01/30 02:24:15;;;;;;;13.43;7.83;;;6.40;65.80;;;;;;5046130;28;20040;-68
2021/01/30 02:27:00;;;;;;;11.93;7.60;;;6.40;65.50;;;;;;5049138;28;20071;-69
2021/01/30 02:29:40;;;;;;;11.40;7.80;;;6.40;65.60;;;;;;5043849;28;20471;-68
2021/01/30 02:32:46;;;;;;;13.30;8.23;;;6.40;65.40;;;;;;5025380;28;20430;-68
2021/01/30 02:35:40;;;;;;;13.60;7.87;;;6.60;65.50;;;;;;5033865;28;20025;-73
2021/01/30 02:38:19;;;;;;;13.17;8.33;;;6.20;65.30;;;;;;5042798;28;20040;-69
2021/01/30 02:40:50;;;;;;;11.50;7.27;;;6.20;65.30;;;;;;5049125;28;20440;-69
2021/01/30 02:43:25;;;;;;;11.80;7.47;;;6.10;65.10;;;;;;5037687;28;20029;-72
2021/01/30 02:45:57;;;;;;;12.57;8.20;;;6.00;65.20;;;;;;5038436;28;20028;-69
2021/01/30 02:48:29;;;;;;;11.33;7.07;;;5.90;65.60;;;;;;5033862;28;20033;-75
2021/01/30 02:51:00;;;;;;;10.83;6.97;;;6.00;65.80;;;;;;5037322;28;20013;-72
2021/01/30 02:53:34;;;;;;;12.70;7.67;;;6.10;65.50;;;;;;5047158;28;20025;-69
2021/01/30 02:56:02;;;;;;;12.03;7.83;;;6.00;65.40;;;;;;5031967;28;20147;-68
2021/01/30 02:58:48;;;;;;;12.27;7.73;;;5.90;65.60;;;;;;5043569;28;20132;-69
2021/01/30 03:01:14;;;;;;;11.50;7.40;;;5.90;65.40;;;;;;5041417;28;20037;-68
2021/01/30 03:03:41;;;;;;;12.47;7.77;;;5.90;65.70;;;;;;5024588;28;20036;-77
2021/01/30 03:06:28;;;;;;;12.73;6.87;;;6.00;65.70;;;;;;5048984;28;20029;-69
2021/01/30 03:09:17;;;;;;;11.07;6.80;;;6.00;65.60;;;;;;5028340;28;20537;-71
2021/01/30 03:12:08;;;;;;;10.70;6.90;;;5.90;65.30;;;;;;5034315;28;20072;-68
2021/01/30 03:14:43;;;;;;;11.13;7.00;;;5.80;65.00;;;;;;5045556;28;20021;-68
2021/01/30 03:17:09;;;;;;;10.47;6.67;;;5.70;65.10;;;;;;5031661;28;20356;-68
2021/01/30 03:19:36;;;;;;;10.17;6.63;;;5.70;65.20;;;;;;5027554;28;20033;-69
2021/01/30 03:22:08;;;;;;;9.70;6.40;;;5.80;65.20;;;;;;5050468;28;20114;-69
2021/01/30 03:24:44;;;;;;;10.52;6.40;;;5.70;64.90;;;;;;5022529;28;20071;-68
2021/01/30 03:27:20;;;;;;;10.60;6.70;;;5.60;64.30;;;;;;5043939;28;20030;-69
2021/01/30 03:29:46;;;;;;;10.10;6.37;;;5.50;64.70;;;;;;5049083;28;20025;-68
2021/01/30 03:32:12;;;;;;;10.30;5.97;;;5.50;65.00;;;;;;5052104;28;20394;-69
2021/01/30 03:34:37;;;;;;;11.27;6.47;;;5.50;65.20;;;;;;5030026;28;20114;-69
2021/01/30 03:37:03;;;;;;;10.43;6.87;;;5.50;65.20;;;;;;5038999;28;20499;-69
2021/01/30 03:39:28;;;;;;;10.90;7.20;;;5.60;65.20;;;;;;5049977;28;20406;-68
2021/01/30 03:41:54;;;;;;;11.27;6.70;;;5.50;65.20;;;;;;5027752;28;20124;-68
2021/01/30 03:44:20;;;;;;;11.30;7.40;;;5.30;65.30;;;;;;5032169;28;20041;-68
2021/01/30 03:46:45;;;;;;;10.23;6.83;;;5.20;65.80;;;;;;5030267;28;20029;-70
2021/01/30 03:49:11;;;;;;;11.53;7.50;;;5.10;66.10;;;;;;5050614;28;20040;-69
2021/01/30 03:51:37;;;;;;;12.33;6.77;;;5.10;66.30;;;;;;5047116;28;20037;-69
2021/01/30 03:54:03;;;;;;;9.83;6.13;;;5.10;66.40;;;;;;5032815;28;20495;-69
2021/01/30 03:56:29;;;;;;;10.27;6.33;;;5.10;66.60;;;;;;5052836;28;20108;-69
2021/01/30 03:58:54;;;;;;;10.80;7.37;;;5.10;66.70;;;;;;5036507;28;20128;-69
2021/01/30 04:01:20;;;;;;;11.00;6.33;;;5.20;66.60;;;;;;5017022;28;20517;-70
2021/01/30 04:03:48;;;;;;;11.20;6.20;;;5.30;66.40;;;;;;5031289;28;20033;-75
2021/01/30 04:06:15;;;;;;;9.77;6.23;;;5.30;65.90;;;;;;5030691;28;20033;-73
2021/01/30 04:08:41;;;;;;;10.83;6.83;;;5.20;65.70;;;;;;5047052;28;20029;-68
2021/01/30 04:11:06;;;;;;;10.27;5.93;;;5.10;65.70;;;;;;5054884;28;20059;-70
2021/01/30 04:13:32;;;;;;;10.47;6.43;;;5.10;66.10;;;;;;5069647;28;20032;-69
2021/01/30 04:15:57;;;;;;;9.30;6.27;;;5.00;66.10;;;;;;5071834;28;20173;-68
2021/01/30 04:18:23;;;;;;;10.40;6.53;;;5.00;66.40;;;;;;5060313;28;20044;-73
2021/01/30 04:20:49;;;;;;;10.90;6.57;;;4.90;66.50;;;;;;5067678;28;20086;-70
2021/01/30 04:23:14;;;;;;;10.17;6.33;;;5.00;66.60;;;;;;5053601;28;20482;-68
2021/01/30 04:25:40;;;;;;;10.17;6.37;;;5.10;66.50;;;;;;5052582;28;20025;-70
2021/01/30 04:28:06;;;;;;;9.13;5.57;;;5.00;66.00;;;;;;5059892;28;20098;-70
2021/01/30 04:30:32;;;;;;;9.57;5.90;;;5.00;65.70;;;;;;5070640;28;20098;-69
2021/01/30 04:32:59;;;;;;;8.07;5.23;;;5.00;65.70;;;;;;5067300;28;20032;-68
2021/01/30 04:35:32;;;;;;;8.13;4.50;;;5.00;65.30;;;;;;5070319;28;20028;-69
2021/01/30 04:37:58;;;;;;;8.67;5.70;;;5.00;65.50;;;;;;5065647;28;20075;-68
2021/01/30 04:40:44;;;;;;;7.37;4.57;;;5.00;65.30;;;;;;5058596;28;20062;-71
2021/01/30 04:43:33;;;;;;;7.93;4.70;;;5.10;64.90;;;;;;5062625;28;20038;-69
2021/01/30 04:46:12;;;;;;;7.13;4.10;;;5.00;64.00;;;;;;5057762;28;20207;-70
2021/01/30 04:49:01;;;;;;;10.23;4.40;;;4.90;64.30;;;;;;5067518;28;20612;-69
2021/01/30 04:51:40;;;;;;;6.70;3.63;;;4.90;64.40;;;;;;5070069;28;20051;-68
2021/01/30 04:54:33;;;;;;;8.37;4.50;;;4.90;64.20;;;;;;5069602;28;20028;-68
2021/01/30 04:57:17;;;;;;;9.83;4.73;;;4.80;64.10;;;;;;5067598;28;20024;-68
2021/01/30 05:00:05;;;;;;;8.93;5.15;;;4.70;64.40;;;;;;5067845;28;20548;-69
2021/01/30 05:03:00;;;;;;;8.63;4.17;;;4.70;64.80;;;;;;5063960;28;20033;-69
2021/01/30 05:05:27;;;;;;;8.00;4.37;;;4.60;64.90;;;;;;5067163;28;20108;-68
2021/01/30 05:08:09;;;;;;;9.37;5.40;;;4.60;65.00;;;;;;5063187;28;20043;-71
2021/01/30 05:10:43;;;;;;;8.27;4.87;;;4.60;65.00;;;;;;5045401;28;20056;-70
2021/01/30 05:13:17;;;;;;;9.67;6.27;;;4.70;65.10;;;;;;5019419;28;20208;-69
2021/01/30 05:15:56;;;;;;;7.87;4.73;;;4.60;65.10;;;;;;5022757;28;20451;-69
2021/01/30 05:18:27;;;;;;;7.47;4.33;;;4.70;65.30;;;;;;5023174;28;20041;-73
2021/01/30 05:21:02;;;;;;;8.00;4.83;;;4.70;65.40;;;;;;5044425;28;20029;-72
2021/01/30 05:23:29;;;;;;;8.87;5.17;;;4.70;65.40;;;;;;5032467;28;20100;-68
2021/01/30 05:26:04;;;;;;;8.93;5.27;;;4.70;65.30;;;;;;5033879;28;20412;-69
2021/01/30 05:28:47;;;;;;;10.93;5.93;;;4.60;65.60;;;;;;5038532;28;20040;-69
2021/01/30 05:31:36;;;;;;;9.15;5.43;;;4.60;65.90;;;;;;5036011;28;20060;-69
2021/01/30 05:34:09;;;;;;;9.07;4.90;;;4.60;66.30;;;;;;5039213;28;20025;-68
2021/01/30 05:36:42;;;;;;;9.75;5.63;;;4.60;66.50;;;;;;5019338;28;20092;-68
2021/01/30 05:39:23;;;;;;;8.48;4.70;;;4.60;66.50;;;;;;5034488;28;20041;-68
2021/01/30 05:42:11;;;;;;;8.17;4.73;;;4.60;66.80;;;;;;5039853;28;20471;-68
2021/01/30 05:44:47;;;;;;;9.40;5.30;;;4.60;67.00;;;;;;5033317;28;20025;-69
2021/01/30 05:47:29;;;;;;;7.67;4.47;;;4.70;67.00;;;;;;5025215;28;20029;-68
2021/01/30 05:50:06;;;;;;;8.87;5.03;;;4.70;67.20;;;;;;5039918;28;20033;-76
2021/01/30 05:52:35;;;;;;;8.33;5.57;;;4.60;67.00;;;;;;5027482;28;20027;-69
2021/01/30 05:55:01;;;;;;;9.53;5.23;;;4.60;67.10;;;;;;5046832;28;20032;-68
2021/01/30 05:57:26;;;;;;;8.20;4.93;;;4.60;67.20;;;;;;5045933;28;20360;-68
2021/01/30 05:59:54;;;;;;;12.20;6.43;;;4.60;67.20;;;;;;5034796;28;20442;-68
2021/01/30 06:02:26;;;;;;;9.30;5.43;;;4.50;67.10;;;;;;5047315;28;20094;-68
2021/01/30 06:04:51;;;;;;;8.83;5.63;;;4.60;66.90;;;;;;5048555;28;20086;-70
2021/01/30 06:07:22;;;;;;;7.90;4.90;;;4.60;66.80;;;;;;5047097;28;20467;-69
2021/01/30 06:09:49;;;;;;;8.33;4.90;;;4.60;66.80;;;;;;5020927;28;20115;-69
2021/01/30 06:12:36;;;;;;;8.40;4.97;;;4.60;66.60;;;;;;5042716;28;20071;-69
2021/01/30 06:15:14;;;;;;;8.37;4.63;;;4.70;66.70;;;;;;5046543;28;20108;-69
2021/01/30 06:17:41;;;;;;;8.60;5.20;;;4.70;66.70;;;;;;5049510;28;20037;-69
2021/01/30 06:20:19;;;;;;;9.20;5.33;;;4.70;66.60;;;;;;5016320;28;20025;-68
2021/01/30 06:23:06;;;;;;;10.33;6.17;;;4.80;66.60;;;;;;5033931;28;20088;-69
2021/01/30 06:25:34;;;;;;;10.20;5.13;;;4.70;66.80;;;;;;5049483;28;20021;-69
2021/01/30 06:28:07;;;;;;;9.10;5.00;;;4.70;66.80;;;;;;5038363;28;20564;-71
2021/01/30 06:30:39;;;;;;;10.15;5.22;;;4.70;66.80;;;;;;5030022;28;20025;-68
2021/01/30 06:33:34;;;;;;;8.40;4.73;;;4.70;66.80;;;;;;5042114;28;20051;-72
2021/01/30 06:36:13;;;;;;;9.17;6.03;;;4.80;66.80;;;;;;5031723;28;20032;-75
2021/01/30 06:38:42;;;;;;;9.27;5.40;;;4.80;66.80;;;;;;5046877;28;20029;-68
2021/01/30 06:41:21;;;;;;;10.50;6.00;;;4.80;66.80;;;;;;5040609;28;20116;-69
2021/01/30 06:43:52;;;;;;;8.97;5.13;;;4.80;66.70;;;;;;5038768;28;20032;-68
2021/01/30 06:46:22;;;;;;;9.87;5.27;;;4.70;66.60;;;;;;5022767;28;20098;-69
2021/01/30 06:48:53;;;;;;;8.43;4.97;;;4.70;66.20;;;;;;5037457;28;20040;-68
2021/01/30 06:51:35;;;;;;;9.03;4.93;;;4.60;66.60;;;;;;5047713;28;20032;-69
2021/01/30 06:54:21;;;;;;;10.17;4.80;;;4.60;66.60;;;;;;5020926;28;20078;-74
2021/01/30 06:57:03;;;;;;;8.67;5.33;;;4.50;66.80;;;;;;5039688;28;20044;-69
2021/01/30 06:59:32;;;;;;;10.43;6.20;;;4.50;67.00;;;;;;5044526;28;20103;-69
2021/01/30 07:01:59;;;;;;;10.20;5.87;;;4.60;67.10;;;;;;5030584;28;20017;-69
2021/01/30 07:04:28;;;;;;;9.73;5.20;;;4.60;67.10;;;;;;5048282;28;20037;-68
2021/01/30 07:07:08;;;;;;;10.73;5.80;;;4.60;67.10;;;;;;5050874;28;20037;-68
2021/01/30 07:09:52;;;;;;;10.27;5.87;;;4.60;67.30;;;;;;5040634;28;20041;-69
2021/01/30 07:12:47;;;;;;;8.73;4.93;;;4.60;67.50;;;;;;5038334;28;20045;-69
2021/01/30 07:15:18;;;;;;;8.25;4.53;;;4.60;67.50;;;;;;5038998;28;20390;-69
2021/01/30 07:18:02;;;;;;;8.83;4.80;;;4.60;67.60;;;;;;5051539;28;20368;-68
2021/01/30 07:20:47;;;;;;;10.73;5.47;;;4.60;67.60;;;;;;5048355;28;20033;-69
2021/01/30 07:23:24;;;;;;;9.67;5.03;;;4.60;67.70;;;;;;5047372;28;20047;-68
2021/01/30 07:26:05;;;;;;;10.07;5.70;;;4.60;67.90;;;;;;5049614;28;20029;-70
2021/01/30 07:28:40;;;;;;;9.20;5.23;;;4.60;68.00;;;;;;5050950;28;20075;-69
2021/01/30 07:31:15;;;;;;;9.33;5.37;;;4.60;67.90;;;;;;5019303;28;20132;-75
2021/01/30 07:33:54;;;;;;;8.73;4.73;;;4.70;67.20;;;;;;5049442;28;20033;-69
2021/01/30 07:36:34;;;;;;;10.10;5.47;;;4.60;66.90;;;;;;5020172;28;20410;-69
2021/01/30 07:39:41;;;;;;;9.23;5.23;;;4.50;66.50;;;;;;5045483;28;20033;-70
2021/01/30 07:42:17;;;;;;;9.63;5.67;;;4.50;66.40;;;;;;4951401;28;20023;-70
2021/01/30 07:45:21;;;;;;;9.70;5.90;;;4.40;66.40;;;;;;5036546;28;20030;-68
2021/01/30 07:48:06;;;;;;;8.32;4.15;;;4.40;66.50;;;;;;5045562;28;20021;-68
2021/01/30 07:50:38;;;;;;;9.70;5.53;;;4.30;66.70;;;;;;5051615;28;20037;-70
2021/01/30 07:53:36;;;;;;;12.47;5.37;;;4.30;67.00;;;;;;5040610;28;20026;-70
2021/01/30 07:56:26;;;;;;;8.93;4.67;;;4.30;67.20;;;;;;4987073;28;20556;-69
2021/01/30 07:59:16;;;;;;;9.00;4.57;;;4.40;67.30;;;;;;5042479;28;20056;-70
2021/01/30 08:01:57;;;;;;;9.10;4.93;;;4.40;67.50;;;;;;5045753;28;20483;-70
2021/01/30 08:04:43;;;;;;;8.37;4.80;;;4.40;67.30;;;;;;5027842;28;20090;-69
2021/01/30 08:07:28;;;;;;;10.60;5.63;;;4.40;67.50;;;;;;5046814;28;20036;-69
2021/01/30 08:10:03;;;;;;;9.57;5.53;;;4.40;67.70;;;;;;5020551;28;20140;-71
2021/01/30 08:12:31;;;;;;;10.57;5.33;;;4.30;67.40;;;;;;5040943;28;20064;-70
2021/01/30 08:15:11;;;;;;;9.93;4.83;;;4.30;67.20;;;;;;5044872;28;20033;-70
2021/01/30 08:18:07;;;;;;;11.17;5.53;;;4.40;67.10;;;;;;5044974;28;20029;-71
2021/01/30 08:20:56;;;;;;;9.83;5.17;;;4.40;67.00;;;;;;5043841;28;20025;-69
2021/01/30 08:23:48;;;;;;;9.93;5.10;;;4.30;66.80;;;;;;5049524;28;20052;-69
2021/01/30 08:26:32;;;;;;;10.40;5.97;;;4.30;67.00;;;;;;5031226;28;20028;-72
2021/01/30 08:29:10;;;;;;;;;;;4.30;67.70;;;;;;5033173;28;20028;-70
2021/01/30 08:31:39;;;;;;;10.70;5.63;;;4.40;67.10;;;;;;5045427;28;20023;-69
2021/01/30 08:34:11;;;;;;;12.37;6.77;;;4.40;67.20;;;;;;5044845;28;20301;-69
2021/01/30 08:36:42;;;;;;;9.80;5.27;;;4.50;67.00;;;;;;5049739;28;20105;-70
2021/01/30 08:39:25;;;;;;;10.27;5.33;;;4.50;67.00;;;;;;5023619;28;20124;-69
2021/01/30 08:42:01;;;;;;;11.40;5.70;;;4.60;66.90;;;;;;5033819;28;20104;-70
2021/01/30 08:45:05;;;;;;;9.90;5.27;;;4.70;66.60;;;;;;5042720;28;20428;-69
2021/01/30 08:47:35;;;;;;;10.63;5.75;;;4.60;66.60;;;;;;4978370;28;20237;-70
2021/01/30 08:50:23;;;;;;;12.13;6.30;;;4.60;66.90;;;;;;5033780;28;20033;-68
2021/01/30 08:52:51;;;;;;;10.40;6.03;;;4.60;67.20;;;;;;5032600;28;20088;-70
2021/01/30 08:55:50;;;;;;;12.40;6.33;;;4.70;67.20;;;;;;5040700;28;20022;-69
2021/01/30 08:58:36;;;;;;;9.03;4.93;;;4.90;66.80;;;;;;5040791;28;20076;-69
2021/01/30 09:01:31;;;;;;;8.43;5.27;;;5.20;66.10;;;;;;5035479;28;20108;-70
2021/01/30 09:03:58;;;;;;;9.20;5.05;;;5.30;64.70;;;;;;5030334;28;20499;-69
2021/01/30 09:06:39;;;;;;;9.20;5.57;;;5.50;64.80;;;;;;5031980;28;20021;-69
2021/01/30 09:09:09;;;;;;;9.83;5.50;;;5.70;64.10;;;;;;5028941;28;20039;-71
2021/01/30 09:11:38;;;;;;;10.90;6.17;;;6.10;62.70;;;;;;5040761;28;20045;-69
2021/01/30 09:14:11;;;;;;;8.50;4.67;;;6.30;62.30;;;;;;5034581;28;20025;-71
2021/01/30 09:17:24;;;;;;;9.20;5.00;;;6.50;61.70;;;;;;5047759;28;20028;-69
2021/01/30 09:20:22;;;;;;;8.03;4.63;;;6.60;61.30;;;;;;5024138;28;20208;-69
2021/01/30 09:23:04;;;;;;;9.97;6.50;;;6.50;60.00;;;;;;4976712;28;20044;-69
2021/01/30 09:25:46;;;;;;;9.63;5.47;;;6.30;60.50;;;;;;5040164;28;20501;-69
2021/01/30 09:28:30;;;;;;;8.77;5.00;;;6.20;61.10;;;;;;5043671;28;20123;-75
2021/01/30 09:31:01;;;;;;;9.32;5.38;;;6.10;61.40;;;;;;5036338;28;20507;-67
2021/01/30 09:33:37;;;;;;;9.30;4.97;;;6.00;61.60;;;;;;5047221;28;20113;-70
2021/01/30 09:36:26;;;;;;;10.33;5.30;;;5.90;61.70;;;;;;5049986;28;20029;-68
2021/01/30 09:38:59;;;;;;;9.00;4.87;;;5.80;62.00;;;;;;5034711;28;20064;-69
2021/01/30 09:41:29;;;;;;;11.50;5.85;;;5.80;62.40;;;;;;5036373;28;20024;-67
2021/01/30 09:44:07;;;;;;;10.20;5.37;;;5.80;62.10;;;;;;5048456;28;20025;-68
2021/01/30 09:46:45;;;;;;;9.43;5.00;;;5.90;62.00;;;;;;5049266;28;20059;-67
2021/01/30 09:49:33;;;;;;;9.67;5.13;;;6.00;61.90;;;;;;5031117;28;20079;-69
2021/01/30 09:52:03;;;;;;;10.13;5.30;;;6.00;61.60;;;;;;5044084;28;20040;-67
2021/01/30 09:54:29;;;;;;;10.27;5.50;;;5.90;61.60;;;;;;5041421;28;20029;-67
2021/01/30 09:57:07;;;;;;;10.03;5.60;;;5.90;61.80;;;;;;5023978;28;20037;-68
2021/01/30 09:59:33;;;;;;;10.03;5.30;;;5.90;61.60;;;;;;5027004;28;20029;-69
2021/01/30 10:02:22;;;;;;;9.13;4.90;;;5.90;61.80;;;;;;5033013;28;20036;-68
2021/01/30 10:05:00;;;;;;;8.33;4.70;;;6.00;62.00;;;;;;5014256;28;20025;-68
2021/01/30 10:07:26;;;;;;;10.20;5.50;;;6.10;61.70;;;;;;5042810;28;20455;-68
2021/01/30 10:09:52;;;;;;;9.67;5.23;;;6.00;61.80;;;;;;5028772;28;20490;-67
2021/01/30 10:12:21;;;;;;;9.97;5.70;;;5.90;62.00;;;;;;5057257;28;20390;-67
2021/01/30 10:14:50;;;;;;;10.33;5.60;;;5.90;61.80;;;;;;5063611;28;20041;-66
2021/01/30 10:17:21;;;;;;;9.93;5.97;;;5.80;62.10;;;;;;5063623;28;20029;-68
2021/01/30 10:20:00;;;;;;;10.57;6.03;;;5.70;62.30;;;;;;5059110;28;20017;-68
2021/01/30 10:22:37;;;;;;;11.07;5.77;;;5.70;62.90;;;;;;5055182;28;20024;-67
2021/01/30 10:25:07;;;;;;;9.70;5.77;;;5.80;62.40;;;;;;5066017;28;20444;-69
2021/01/30 10:27:33;;;;;;;9.73;5.63;;;5.70;62.40;;;;;;5067167;28;20031;-69
2021/01/30 10:29:59;;;;;;;11.93;5.60;;;5.70;62.80;;;;;;5064544;28;20773;-68
2021/01/30 10:32:47;;;;;;;10.87;5.70;;;5.80;63.00;;;;;;5055159;28;20107;-67
2021/01/30 10:35:34;;;;;;;10.17;5.60;;;5.90;62.80;;;;;;5060854;28;20038;-69
2021/01/30 10:38:12;;;;;;;9.57;5.60;;;5.90;62.60;;;;;;5060635;28;20037;-72
2021/01/30 10:41:03;;;;;;;13.73;6.30;;;6.00;62.70;;;;;;5067042;28;20041;-63
2021/01/30 10:43:38;;;;;;;9.07;5.10;;;6.00;62.30;;;;;;5056218;28;20021;-65
2021/01/30 10:46:40;;;;;;;9.23;5.20;;;5.90;62.30;;;;;;5057711;28;20029;-66
2021/01/30 10:49:28;;;;;;;8.23;5.10;;;6.00;62.00;;;;;;5052860;28;20035;-65
2021/01/30 10:52:24;;;;;;;10.20;5.80;;;6.00;62.00;;;;;;5060260;28;20486;-67
2021/01/30 10:54:50;;;;;;;10.43;5.63;;;6.00;62.00;;;;;;5043793;28;20045;-66
2021/01/30 10:57:18;;;;;;;10.87;5.73;;;6.00;62.00;;;;;;5065971;28;20390;-68
2021/01/30 10:59:56;;;;;;;10.53;5.97;;;6.00;62.50;;;;;;5055821;28;20098;-66
2021/01/30 11:02:42;;;;;;;9.77;5.57;;;6.20;62.50;;;;;;5063254;28;20017;-67
2021/01/30 11:05:12;;;;;;;10.23;6.03;;;6.30;61.90;;;;;;5054683;28;20037;-65
2021/01/30 11:07:44;;;;;;;10.60;6.23;;;6.30;61.50;;;;;;5053417;28;20139;-66
2021/01/30 11:10:42;;;;;;;9.37;5.07;;;6.30;61.60;;;;;;5066779;28;20110;-66
2021/01/30 11:13:13;;;;;;;10.27;5.13;;;6.30;62.30;;;;;;5053378;28;20502;-66
2021/01/30 11:15:44;;;;;;;9.00;4.90;;;6.30;61.10;;;;;;5052095;28;20106;-66
2021/01/30 11:18:26;;;;;;;10.40;5.90;;;6.30;61.70;;;;;;5027299;28;20517;-66
2021/01/30 11:20:51;;;;;;;10.17;5.57;;;6.30;61.80;;;;;;5032777;28;20025;-66
2021/01/30 11:23:53;;;;;;;10.97;5.93;;;6.30;61.90;;;;;;5040326;28;20329;-72
2021/01/30 11:26:31;;;;;;;11.47;6.13;;;6.30;61.40;;;;;;5039444;28;20025;-66
2021/01/30 11:28:58;;;;;;;11.20;6.47;;;6.20;61.80;;;;;;5041593;28;20037;-66
2021/01/30 11:31:25;;;;;;;9.83;6.00;;;6.30;61.90;;;;;;5041086;28;20059;-66
2021/01/30 11:33:54;;;;;;;10.43;6.80;;;6.20;61.60;;;;;;5039745;28;20133;-66
2021/01/30 11:36:20;;;;;;;10.20;5.83;;;6.30;61.90;;;;;;5032228;28;20014;-67
2021/01/30 11:38:55;;;;;;;10.20;5.77;;;6.40;62.20;;;;;;5037673;28;20382;-67
2021/01/30 11:41:21;;;;;;;11.07;6.30;;;6.50;62.30;;;;;;5020892;28;20017;-65
2021/01/30 11:43:47;;;;;;;10.17;5.67;;;6.60;61.80;;;;;;5027866;28;20041;-65
2021/01/30 11:46:12;;;;;;;11.27;6.73;;;6.70;61.60;;;;;;5037445;28;20037;-69
2021/01/30 11:48:38;;;;;;;9.70;5.97;;;6.60;61.70;;;;;;5029348;28;20132;-69
2021/01/30 11:51:18;;;;;;;10.20;6.20;;;6.50;62.00;;;;;;5015615;28;20033;-68
2021/01/30 11:53:44;;;;;;;11.20;6.50;;;6.40;62.20;;;;;;5049641;28;20029;-68
2021/01/30 11:56:09;;;;;;;12.33;7.37;;;6.40;62.20;;;;;;5024817;28;20033;-70
2021/01/30 11:58:35;;;;;;;13.77;7.90;;;6.30;62.40;;;;;;5033811;28;20048;-66
2021/01/30 12:01:01;;;;;;;10.63;6.47;;;6.40;62.20;;;;;;5043169;28;20037;-66
2021/01/30 12:03:29;;;;;;;10.93;7.07;;;6.30;62.10;;;;;;5039503;28;20029;-67
2021/01/30 12:05:56;;;;;;;12.17;6.73;;;6.30;62.20;;;;;;5032802;28;20033;-65
2021/01/30 12:08:22;;;;;;;9.77;6.27;;;6.20;62.50;;;;;;5045620;28;20037;-65
2021/01/30 12:10:48;;;;;;;11.13;7.00;;;6.40;62.70;;;;;;5040770;28;20045;-64
2021/01/30 12:13:14;;;;;;;10.80;6.83;;;6.50;62.10;;;;;;5036801;28;20115;-67
2021/01/30 12:15:39;;;;;;;11.17;6.87;;;6.50;61.80;;;;;;5050637;28;20442;-65
2021/01/30 12:18:10;;;;;;;10.13;6.53;;;6.50;61.40;;;;;;5047877;28;20037;-70
2021/01/30 12:20:36;;;;;;;10.50;6.20;;;6.50;61.50;;;;;;5041794;28;20029;-69
2021/01/30 12:23:03;;;;;;;11.43;5.97;;;6.40;61.60;;;;;;5050560;28;20029;-68
2021/01/30 12:25:29;;;;;;;10.17;6.43;;;6.50;61.70;;;;;;5045504;28;20030;-65
2021/01/30 12:27:58;;;;;;;10.87;5.80;;;6.40;61.70;;;;;;5047566;28;20100;-69
2021/01/30 12:30:28;;;;;;;11.97;7.60;;;6.40;62.10;;;;;;5036957;28;20029;-69
2021/01/30 12:32:54;;;;;;;11.37;6.87;;;6.40;62.00;;;;;;5045658;28;20152;-67
2021/01/30 12:35:23;;;;;;;11.00;6.57;;;6.90;62.30;;;;;;5039925;28;20044;-65
2021/01/30 12:37:49;;;;;;;10.10;5.73;;;6.40;62.20;;;;;;5033687;28;20033;-67
2021/01/30 12:40:16;;;;;;;11.13;6.73;;;6.40;62.10;;;;;;5033471;28;20074;-65
2021/01/30 12:42:42;;;;;;;10.57;6.10;;;6.40;62.20;;;;;;5042564;28;20029;-65
2021/01/30 12:45:09;;;;;;;12.00;7.30;;;6.40;62.40;;;;;;5037723;28;20037;-64
2021/01/30 12:47:34;;;;;;;11.30;6.53;;;6.30;62.40;;;;;;5020702;28;20037;-66
2021/01/30 12:50:00;;;;;;;12.17;7.33;;;6.30;62.40;;;;;;5046878;28;20060;-66
2021/01/30 12:52:29;;;;;;;11.53;6.80;;;6.30;62.70;;;;;;5022188;28;20411;-72
2021/01/30 12:54:55;;;;;;;12.60;7.00;;;6.40;62.70;;;;;;5037626;28;20050;-68
2021/01/30 12:57:20;;;;;;;11.80;6.70;;;6.50;62.20;;;;;;5035406;28;20075;-68
2021/01/30 12:59:46;;;;;;;10.80;6.20;;;6.40;62.30;;;;;;5041896;28;20400;-70
2021/01/30 13:02:12;;;;;;;11.47;7.13;;;6.40;62.40;;;;;;5023030;28;20043;-67
2021/01/30 13:04:38;;;;;;;13.30;7.50;;;6.40;62.30;;;;;;5039396;28;20045;-67
2021/01/30 13:07:04;;;;;;;11.87;7.20;;;6.40;62.30;;;;;;5037824;28;20127;-68
2021/01/30 13:09:30;;;;;;;11.27;6.30;;;6.40;62.20;;;;;;5037314;28;20037;-67
2021/01/30 13:11:56;;;;;;;11.63;6.50;;;6.40;62.40;;;;;;5035329;28;20083;-66
2021/01/30 13:14:22;;;;;;;10.70;6.30;;;6.40;62.40;;;;;;5006251;28;20029;-68
2021/01/30 13:16:48;;;;;;;11.70;6.87;;;6.40;62.60;;;;;;5039620;28;20033;-66
2021/01/30 13:19:14;;;;;;;13.30;7.83;;;6.50;62.50;;;;;;5016587;28;20045;-65
2021/01/30 13:21:47;;;;;;;10.53;6.27;;;6.40;62.40;;;;;;5046576;28;20505;-69
2021/01/30 13:24:13;;;;;;;12.32;6.15;;;6.30;62.40;;;;;;5019656;28;20566;-67